Terminal Aerodrome Forecast
Issued by NWS Charleston, WV

Current Version | Previous Version | Text Only | Print | Product List | Glossary Off
Versions: 1 2 3 4 5 6 7 8 9 10 11 12 13 14 15 16 17 18 19 20 21 22 23 24

000
FTUS41 KRLX 021723
TAFHTS
TAF
KHTS 021723Z 0218/0318 VRB03KT P6SM SCT035
     FM030900 00000KT 3SM BR SCT035
     FM031200 00000KT P6SM SCT035
     FM031700 VRB03KT P6SM BKN035=

USA.gov is the U.S. government's official web portal to all federal, state and local government web resources and services.